sensor_id;sensor_type;location;lat;lon;timestamp;pressure;altitude;pressure_sealevel;temperature;humidity
59009;BME280;44794;42.652;23.318;2023-05-08T00:00:32;94631.13;;;11.46;95.80
59009;BME280;44794;42.652;23.318;2023-05-08T00:02:58;94635.59;;;11.44;95.95
59009;BME280;44794;42.652;23.318;2023-05-08T00:05:23;94642.00;;;11.40;96.16
59009;BME280;44794;42.652;23.318;2023-05-08T00:07:49;94637.94;;;11.36;96.46
59009;BME280;44794;42.652;23.318;2023-05-08T00:10:16;94639.00;;;11.34;96.36
59009;BME280;44794;42.652;23.318;2023-05-08T00:12:41;94637.47;;;11.31;96.57
59009;BME280;44794;42.652;23.318;2023-05-08T00:15:07;94640.22;;;11.30;96.85
59009;BME280;44794;42.652;23.318;2023-05-08T00:17:33;94643.16;;;11.25;97.12
59009;BME280;44794;42.652;23.318;2023-05-08T00:19:59;94643.38;;;11.22;97.09
59009;BME280;44794;42.652;23.318;2023-05-08T00:22:24;94644.44;;;11.20;97.08
59009;BME280;44794;42.652;23.318;2023-05-08T00:24:49;94643.03;;;11.16;97.35
59009;BME280;44794;42.652;23.318;2023-05-08T00:27:15;94649.38;;;11.12;97.52
59009;BME280;44794;42.652;23.318;2023-05-08T00:29:41;94649.03;;;11.06;97.88
59009;BME280;44794;42.652;23.318;2023-05-08T00:32:07;94648.09;;;11.07;98.38
59009;BME280;44794;42.652;23.318;2023-05-08T00:34:33;94645.56;;;11.05;98.46
59009;BME280;44794;42.652;23.318;2023-05-08T00:36:59;94647.25;;;11.06;98.56
59009;BME280;44794;42.652;23.318;2023-05-08T00:39:24;94651.97;;;11.12;97.94
59009;BME280;44794;42.652;23.318;2023-05-08T00:41:50;94647.63;;;11.13;97.68
59009;BME280;44794;42.652;23.318;2023-05-08T00:44:15;94639.94;;;11.11;97.74
59009;BME280;44794;42.652;23.318;2023-05-08T00:46:41;94648.56;;;11.12;97.72
59009;BME280;44794;42.652;23.318;2023-05-08T00:49:07;94644.41;;;11.09;98.00
59009;BME280;44794;42.652;23.318;2023-05-08T00:51:35;94653.16;;;11.19;97.60
59009;BME280;44794;42.652;23.318;2023-05-08T00:54:01;94652.13;;;11.22;97.18
59009;BME280;44794;42.652;23.318;2023-05-08T00:56:28;94652.34;;;11.19;97.09
59009;BME280;44794;42.652;23.318;2023-05-08T00:58:56;94656.56;;;11.09;97.69
59009;BME280;44794;42.652;23.318;2023-05-08T01:01:23;94652.44;;;11.06;98.11
59009;BME280;44794;42.652;23.318;2023-05-08T01:03:49;94660.56;;;11.02;98.30
59009;BME280;44794;42.652;23.318;2023-05-08T01:06:14;94651.75;;;11.04;98.29
59009;BME280;44794;42.652;23.318;2023-05-08T01:08:43;94662.81;;;11.06;98.17
59009;BME280;44794;42.652;23.318;2023-05-08T01:11:18;94657.03;;;11.03;98.05
59009;BME280;44794;42.652;23.318;2023-05-08T01:33:43;94647.28;;;10.83;100.00
59009;BME280;44794;42.652;23.318;2023-05-08T01:36:28;94645.63;;;10.82;100.00
59009;BME280;44794;42.652;23.318;2023-05-08T01:39:16;94644.56;;;10.84;99.95
59009;BME280;44794;42.652;23.318;2023-05-08T01:41:52;94643.38;;;10.77;100.00
59009;BME280;44794;42.652;23.318;2023-05-08T01:44:23;94643.63;;;10.74;100.00
59009;BME280;44794;42.652;23.318;2023-05-08T01:46:52;94636.75;;;10.73;100.00
59009;BME280;44794;42.652;23.318;2023-05-08T01:49:25;94632.63;;;10.71;100.00
59009;BME280;44794;42.652;23.318;2023-05-08T01:52:14;94634.75;;;10.66;100.00
59009;BME280;44794;42.652;23.318;2023-05-08T01:54:47;94634.13;;;10.62;100.00
59009;BME280;44794;42.652;23.318;2023-05-08T01:57:17;94622.63;;;10.54;100.00
59009;BME280;44794;42.652;23.318;2023-05-08T01:59:44;94633.00;;;10.54;100.00
59009;BME280;44794;42.652;23.318;2023-05-08T02:02:11;94634.78;;;10.53;100.00
59009;BME280;44794;42.652;23.318;2023-05-08T02:04:38;94635.59;;;10.54;100.00
59009;BME280;44794;42.652;23.318;2023-05-08T02:07:06;94635.13;;;10.49;100.00
59009;BME280;44794;42.652;23.318;2023-05-08T02:09:32;94626.84;;;10.44;100.00
59009;BME280;44794;42.652;23.318;2023-05-08T02:11:59;94630.16;;;10.46;100.00
59009;BME280;44794;42.652;23.318;2023-05-08T02:14:26;94622.97;;;10.49;100.00
59009;BME280;44794;42.652;23.318;2023-05-08T02:16:53;94629.94;;;10.49;100.00
59009;BME280;44794;42.652;23.318;2023-05-08T02:19:22;94631.81;;;10.47;100.00
59009;BME280;44794;42.652;23.318;2023-05-08T02:21:50;94631.09;;;10.45;100.00
59009;BME280;44794;42.652;23.318;2023-05-08T02:24:16;94642.44;;;10.44;100.00
59009;BME280;44794;42.652;23.318;2023-05-08T02:26:43;94635.34;;;10.46;100.00
59009;BME280;44794;42.652;23.318;2023-05-08T02:29:10;94639.84;;;10.44;100.00
59009;BME280;44794;42.652;23.318;2023-05-08T02:31:36;94636.31;;;10.45;100.00
59009;BME280;44794;42.652;23.318;2023-05-08T02:34:04;94642.31;;;10.46;100.00
59009;BME280;44794;42.652;23.318;2023-05-08T02:36:30;94641.50;;;10.45;100.00
59009;BME280;44794;42.652;23.318;2023-05-08T02:38:57;94635.25;;;10.48;100.00
59009;BME280;44794;42.652;23.318;2023-05-08T02:41:25;94640.31;;;10.49;100.00
59009;BME280;44794;42.652;23.318;2023-05-08T02:43:53;94638.53;;;10.49;100.00
59009;BME280;44794;42.652;23.318;2023-05-08T02:46:26;94644.47;;;10.51;100.00
59009;BME280;44794;42.652;23.318;2023-05-08T02:49:06;94640.53;;;10.46;100.00
59009;BME280;44794;42.652;23.318;2023-05-08T02:51:48;94641.25;;;10.48;100.00
59009;BME280;44794;42.652;23.318;2023-05-08T02:57:12;94643.63;;;10.51;100.00
59009;BME280;44794;42.652;23.318;2023-05-08T02:59:45;94648.09;;;10.49;100.00
59009;BME280;44794;42.652;23.318;2023-05-08T03:02:15;94651.91;;;10.56;100.00
59009;BME280;44794;42.652;23.318;2023-05-08T03:04:54;94650.03;;;10.58;100.00
59009;BME280;44794;42.652;23.318;2023-05-08T03:07:22;94655.91;;;10.49;100.00
59009;BME280;44794;42.652;23.318;2023-05-08T03:09:54;94648.50;;;10.55;100.00
59009;BME280;44794;42.652;23.318;2023-05-08T03:12:22;94654.66;;;10.65;100.00
59009;BME280;44794;42.652;23.318;2023-05-08T03:17:27;94661.19;;;10.71;100.00
59009;BME280;44794;42.652;23.318;2023-05-08T03:19:58;94662.00;;;10.71;99.90
59009;BME280;44794;42.652;23.318;2023-05-08T03:22:26;94663.53;;;10.74;99.81
59009;BME280;44794;42.652;23.318;2023-05-08T03:24:53;94666.06;;;10.75;99.85
59009;BME280;44794;42.652;23.318;2023-05-08T03:27:21;94664.75;;;10.81;99.56
59009;BME280;44794;42.652;23.318;2023-05-08T03:29:47;94665.63;;;10.92;99.11
59009;BME280;44794;42.652;23.318;2023-05-08T03:32:15;94668.59;;;10.99;98.60
59009;BME280;44794;42.652;23.318;2023-05-08T03:34:41;94671.56;;;11.05;98.14
59009;BME280;44794;42.652;23.318;2023-05-08T03:37:07;94681.63;;;11.10;97.58
59009;BME280;44794;42.652;23.318;2023-05-08T03:39:33;94684.47;;;11.18;97.02
59009;BME280;44794;42.652;23.318;2023-05-08T03:41:58;94678.34;;;11.29;96.82
59009;BME280;44794;42.652;23.318;2023-05-08T03:44:24;94685.00;;;11.44;95.95
59009;BME280;44794;42.652;23.318;2023-05-08T03:46:51;94681.03;;;11.51;95.01
59009;BME280;44794;42.652;23.318;2023-05-08T03:49:17;94691.47;;;11.62;94.69
59009;BME280;44794;42.652;23.318;2023-05-08T03:51:44;94689.56;;;11.75;94.13
59009;BME280;44794;42.652;23.318;2023-05-08T03:54:10;94693.34;;;11.93;93.46
59009;BME280;44794;42.652;23.318;2023-05-08T03:56:35;94702.34;;;12.11;92.21
59009;BME280;44794;42.652;23.318;2023-05-08T03:59:12;94699.97;;;12.19;91.18
59009;BME280;44794;42.652;23.318;2023-05-08T04:01:45;94701.84;;;12.39;90.19
59009;BME280;44794;42.652;23.318;2023-05-08T04:04:29;94711.50;;;12.59;89.00
59009;BME280;44794;42.652;23.318;2023-05-08T04:07:14;94717.97;;;12.75;87.65
59009;BME280;44794;42.652;23.318;2023-05-08T04:12:45;94725.25;;;13.03;85.62
59009;BME280;44794;42.652;23.318;2023-05-08T04:15:23;94732.06;;;13.15;85.03
59009;BME280;44794;42.652;23.318;2023-05-08T04:17:56;94734.31;;;13.19;84.66
59009;BME280;44794;42.652;23.318;2023-05-08T04:20:25;94740.81;;;13.25;84.32
59009;BME280;44794;42.652;23.318;2023-05-08T04:22:52;94739.22;;;13.33;83.56
59009;BME280;44794;42.652;23.318;2023-05-08T04:25:18;94741.84;;;13.33;82.95
59009;BME280;44794;42.652;23.318;2023-05-08T04:27:44;94748.91;;;13.42;82.00
59009;BME280;44794;42.652;23.318;2023-05-08T04:30:11;94762.75;;;13.53;80.15
59009;BME280;44794;42.652;23.318;2023-05-08T04:32:37;94764.00;;;13.59;78.07
59009;BME280;44794;42.652;23.318;2023-05-08T04:35:03;94773.25;;;13.63;76.75
59009;BME280;44794;42.652;23.318;2023-05-08T04:37:29;94759.75;;;13.58;76.93
59009;BME280;44794;42.652;23.318;2023-05-08T04:39:56;94762.72;;;13.74;76.22
59009;BME280;44794;42.652;23.318;2023-05-08T04:42:22;94756.41;;;13.97;75.35
59009;BME280;44794;42.652;23.318;2023-05-08T04:44:48;94758.94;;;14.08;74.33
59009;BME280;44794;42.652;23.318;2023-05-08T04:47:14;94750.78;;;14.22;73.96
59009;BME280;44794;42.652;23.318;2023-05-08T04:49:40;94752.44;;;14.52;72.96
59009;BME280;44794;42.652;23.318;2023-05-08T04:52:05;94757.75;;;14.81;71.42
59009;BME280;44794;42.652;23.318;2023-05-08T04:54:32;94759.16;;;14.94;69.56
59009;BME280;44794;42.652;23.318;2023-05-08T04:56:57;94762.72;;;14.93;69.08
59009;BME280;44794;42.652;23.318;2023-05-08T04:59:23;94754.91;;;15.12;68.54
59009;BME280;44794;42.652;23.318;2023-05-08T05:01:49;94754.00;;;15.32;67.68
59009;BME280;44794;42.652;23.318;2023-05-08T05:04:15;94752.75;;;15.55;67.24
59009;BME280;44794;42.652;23.318;2023-05-08T05:06:40;94755.50;;;15.53;66.39
59009;BME280;44794;42.652;23.318;2023-05-08T05:09:05;94756.88;;;15.29;66.19
59009;BME280;44794;42.652;23.318;2023-05-08T05:11:31;94757.41;;;15.13;67.19
59009;BME280;44794;42.652;23.318;2023-05-08T05:13:57;94747.59;;;15.15;66.78
59009;BME280;44794;42.652;23.318;2023-05-08T05:16:22;94752.59;;;15.75;65.74
59009;BME280;44794;42.652;23.318;2023-05-08T05:18:48;94753.25;;;17.66;59.35
59009;BME280;44794;42.652;23.318;2023-05-08T05:21:13;94773.72;;;19.56;51.92
59009;BME280;44794;42.652;23.318;2023-05-08T05:23:38;94778.34;;;21.80;45.87
59009;BME280;44794;42.652;23.318;2023-05-08T05:26:04;94779.63;;;22.80;42.10
59009;BME280;44794;42.652;23.318;2023-05-08T05:28:29;94787.50;;;23.95;39.80
59009;BME280;44794;42.652;23.318;2023-05-08T05:30:55;94789.47;;;25.38;37.21
59009;BME280;44794;42.652;23.318;2023-05-08T05:33:20;94789.75;;;26.02;35.21
59009;BME280;44794;42.652;23.318;2023-05-08T05:35:46;94790.59;;;26.09;34.62
59009;BME280;44794;42.652;23.318;2023-05-08T05:38:11;94787.16;;;27.19;33.53
59009;BME280;44794;42.652;23.318;2023-05-08T05:40:37;94789.97;;;27.43;32.38
59009;BME280;44794;42.652;23.318;2023-05-08T05:43:02;94786.75;;;28.28;31.37
59009;BME280;44794;42.652;23.318;2023-05-08T05:45:28;94789.53;;;28.03;31.40
59009;BME280;44794;42.652;23.318;2023-05-08T05:47:53;94790.56;;;28.70;30.70
59009;BME280;44794;42.652;23.318;2023-05-08T05:50:19;94788.72;;;29.19;29.95
59009;BME280;44794;42.652;23.318;2023-05-08T05:52:45;94787.69;;;28.95;30.01
59009;BME280;44794;42.652;23.318;2023-05-08T05:55:11;94793.66;;;28.97;29.68
59009;BME280;44794;42.652;23.318;2023-05-08T05:57:37;94779.97;;;29.83;28.59
59009;BME280;44794;42.652;23.318;2023-05-08T06:00:03;94779.03;;;30.25;27.53
59009;BME280;44794;42.652;23.318;2023-05-08T06:02:30;94773.78;;;31.46;26.76
59009;BME280;44794;42.652;23.318;2023-05-08T06:04:56;94768.88;;;31.31;26.42
59009;BME280;44794;42.652;23.318;2023-05-08T06:07:22;94744.25;;;31.12;26.89
59009;BME280;44794;42.652;23.318;2023-05-08T06:09:47;94747.50;;;30.39;27.22
59009;BME280;44794;42.652;23.318;2023-05-08T06:12:12;94746.28;;;29.94;28.11
59009;BME280;44794;42.652;23.318;2023-05-08T06:14:38;94746.38;;;29.52;28.74
59009;BME280;44794;42.652;23.318;2023-05-08T06:17:03;94751.44;;;29.42;28.36
59009;BME280;44794;42.652;23.318;2023-05-08T06:19:28;94749.03;;;28.67;29.31
59009;BME280;44794;42.652;23.318;2023-05-08T06:21:54;94745.25;;;28.81;28.82
59009;BME280;44794;42.652;23.318;2023-05-08T06:24:20;94744.06;;;28.71;28.93
59009;BME280;44794;42.652;23.318;2023-05-08T06:26:45;94742.34;;;27.46;30.51
59009;BME280;44794;42.652;23.318;2023-05-08T06:29:11;94736.94;;;26.96;31.88
59009;BME280;44794;42.652;23.318;2023-05-08T06:31:37;94743.06;;;28.41;30.24
59009;BME280;44794;42.652;23.318;2023-05-08T06:34:02;94752.47;;;28.74;29.16
59009;BME280;44794;42.652;23.318;2023-05-08T06:36:28;94741.88;;;26.73;31.38
59009;BME280;44794;42.652;23.318;2023-05-08T06:38:53;94739.19;;;26.15;32.88
59009;BME280;44794;42.652;23.318;2023-05-08T06:41:18;94746.75;;;26.18;32.71
59009;BME280;44794;42.652;23.318;2023-05-08T06:43:44;94741.50;;;26.44;32.42
59009;BME280;44794;42.652;23.318;2023-05-08T06:46:09;94743.94;;;26.46;32.46
59009;BME280;44794;42.652;23.318;2023-05-08T06:48:35;94751.75;;;28.36;29.84
59009;BME280;44794;42.652;23.318;2023-05-08T06:51:00;94748.03;;;28.37;29.62
59009;BME280;44794;42.652;23.318;2023-05-08T06:53:26;94744.81;;;27.92;30.01
59009;BME280;44794;42.652;23.318;2023-05-08T06:55:52;94744.06;;;27.78;30.54
59009;BME280;44794;42.652;23.318;2023-05-08T06:58:17;94744.13;;;27.02;31.61
59009;BME280;44794;42.652;23.318;2023-05-08T07:00:43;94741.81;;;27.12;31.48
59009;BME280;44794;42.652;23.318;2023-05-08T07:03:08;94745.41;;;27.50;31.16
59009;BME280;44794;42.652;23.318;2023-05-08T07:05:34;94753.28;;;27.19;31.37
59009;BME280;44794;42.652;23.318;2023-05-08T07:07:59;94742.28;;;26.70;31.87
59009;BME280;44794;42.652;23.318;2023-05-08T07:10:24;94753.41;;;25.76;33.52
59009;BME280;44794;42.652;23.318;2023-05-08T07:12:50;94746.09;;;25.37;34.35
59009;BME280;44794;42.652;23.318;2023-05-08T07:15:16;94751.06;;;26.26;33.36
59009;BME280;44794;42.652;23.318;2023-05-08T07:17:42;94756.63;;;26.37;32.92
59009;BME280;44794;42.652;23.318;2023-05-08T07:20:08;94744.25;;;25.84;33.73
59009;BME280;44794;42.652;23.318;2023-05-08T07:22:33;94760.41;;;25.83;34.12
59009;BME280;44794;42.652;23.318;2023-05-08T07:24:59;94754.19;;;24.14;36.38
59009;BME280;44794;42.652;23.318;2023-05-08T07:27:25;94744.88;;;23.12;38.72
59009;BME280;44794;42.652;23.318;2023-05-08T07:29:50;94735.13;;;23.48;38.67
59009;BME280;44794;42.652;23.318;2023-05-08T07:32:16;94745.19;;;23.38;38.80
59009;BME280;44794;42.652;23.318;2023-05-08T07:34:41;94745.47;;;23.63;38.72
59009;BME280;44794;42.652;23.318;2023-05-08T07:37:07;94757.28;;;23.96;38.26
59009;BME280;44794;42.652;23.318;2023-05-08T07:39:33;94747.72;;;24.23;37.10
59009;BME280;44794;42.652;23.318;2023-05-08T07:41:58;94747.16;;;23.85;37.49
59009;BME280;44794;42.652;23.318;2023-05-08T07:44:24;94737.53;;;23.14;38.95
59009;BME280;44794;42.652;23.318;2023-05-08T07:46:49;94745.41;;;21.83;41.82
59009;BME280;44794;42.652;23.318;2023-05-08T07:49:15;94742.19;;;21.12;43.16
59009;BME280;44794;42.652;23.318;2023-05-08T07:51:40;94739.72;;;21.71;43.37
59009;BME280;44794;42.652;23.318;2023-05-08T07:54:06;94743.34;;;22.52;41.98
59009;BME280;44794;42.652;23.318;2023-05-08T07:56:32;94758.69;;;21.75;42.48
59009;BME280;44794;42.652;23.318;2023-05-08T07:58:57;94752.47;;;21.68;42.54
59009;BME280;44794;42.652;23.318;2023-05-08T08:01:22;94756.91;;;21.45;42.05
59009;BME280;44794;42.652;23.318;2023-05-08T08:03:48;94751.69;;;21.59;41.52
59009;BME280;44794;42.652;23.318;2023-05-08T08:06:13;94762.47;;;21.50;42.06
59009;BME280;44794;42.652;23.318;2023-05-08T08:08:39;94753.88;;;21.17;42.63
59009;BME280;44794;42.652;23.318;2023-05-08T08:11:05;94746.63;;;21.19;43.09
59009;BME280;44794;42.652;23.318;2023-05-08T08:13:31;94754.53;;;21.58;42.89
59009;BME280;44794;42.652;23.318;2023-05-08T08:15:58;94756.28;;;22.32;41.77
59009;BME280;44794;42.652;23.318;2023-05-08T08:18:24;94751.38;;;22.44;41.04
59009;BME280;44794;42.652;23.318;2023-05-08T08:20:49;94757.50;;;22.22;41.78
59009;BME280;44794;42.652;23.318;2023-05-08T08:23:15;94754.34;;;21.51;43.12
59009;BME280;44794;42.652;23.318;2023-05-08T08:25:40;94745.66;;;21.43;43.65
59009;BME280;44794;42.652;23.318;2023-05-08T08:28:06;94743.94;;;21.80;43.96
59009;BME280;44794;42.652;23.318;2023-05-08T08:30:32;94746.84;;;22.81;42.32
59009;BME280;44794;42.652;23.318;2023-05-08T08:32:57;94746.38;;;22.77;41.90
59009;BME280;44794;42.652;23.318;2023-05-08T08:35:26;94738.72;;;23.26;40.55
59009;BME280;44794;42.652;23.318;2023-05-08T08:37:57;94733.78;;;23.23;41.46
59009;BME280;44794;42.652;23.318;2023-05-08T08:40:22;94726.91;;;22.42;42.64
59009;BME280;44794;42.652;23.318;2023-05-08T08:42:48;94723.53;;;22.33;44.02
59009;BME280;44794;42.652;23.318;2023-05-08T08:45:13;94727.16;;;22.32;43.50
59009;BME280;44794;42.652;23.318;2023-05-08T08:47:43;94717.88;;;22.51;43.39
59009;BME280;44794;42.652;23.318;2023-05-08T08:50:09;94716.53;;;22.69;43.25
59009;BME280;44794;42.652;23.318;2023-05-08T08:52:51;94714.31;;;22.07;45.19
59009;BME280;44794;42.652;23.318;2023-05-08T08:55:21;94711.56;;;22.37;44.81
59009;BME280;44794;42.652;23.318;2023-05-08T08:57:57;94710.94;;;22.78;44.24
59009;BME280;44794;42.652;23.318;2023-05-08T09:00:27;94711.41;;;22.82;43.50
59009;BME280;44794;42.652;23.318;2023-05-08T09:02:54;94699.00;;;22.17;44.99
59009;BME280;44794;42.652;23.318;2023-05-08T09:05:21;94689.25;;;22.17;45.57
59009;BME280;44794;42.652;23.318;2023-05-08T09:07:48;94694.06;;;22.65;44.46
59009;BME280;44794;42.652;23.318;2023-05-08T09:10:14;94691.59;;;22.49;44.45
59009;BME280;44794;42.652;23.318;2023-05-08T09:12:40;94679.91;;;22.29;45.04
59009;BME280;44794;42.652;23.318;2023-05-08T09:15:06;94680.16;;;21.83;45.42
59009;BME280;44794;42.652;23.318;2023-05-08T09:17:32;94671.31;;;21.91;46.11
59009;BME280;44794;42.652;23.318;2023-05-08T09:19:57;94666.22;;;21.89;46.49
59009;BME280;44794;42.652;23.318;2023-05-08T09:22:24;94669.38;;;22.21;46.72
59009;BME280;44794;42.652;23.318;2023-05-08T09:24:58;94657.28;;;22.04;45.93
59009;BME280;44794;42.652;23.318;2023-05-08T09:27:26;94657.28;;;22.04;46.07
59009;BME280;44794;42.652;23.318;2023-05-08T09:30:06;94637.88;;;22.12;45.94
59009;BME280;44794;42.652;23.318;2023-05-08T09:32:32;94643.03;;;22.42;45.68
59009;BME280;44794;42.652;23.318;2023-05-08T09:34:59;94654.63;;;22.56;45.46
59009;BME280;44794;42.652;23.318;2023-05-08T09:37:25;94657.44;;;22.68;45.07
59009;BME280;44794;42.652;23.318;2023-05-08T09:39:51;94662.44;;;22.92;44.01
59009;BME280;44794;42.652;23.318;2023-05-08T09:42:17;94666.13;;;22.77;44.22
59009;BME280;44794;42.652;23.318;2023-05-08T09:44:52;94672.97;;;22.43;44.78
59009;BME280;44794;42.652;23.318;2023-05-08T09:47:19;94673.88;;;22.35;44.98
59009;BME280;44794;42.652;23.318;2023-05-08T09:49:59;94678.72;;;22.46;45.05
59009;BME280;44794;42.652;23.318;2023-05-08T09:52:26;94680.81;;;22.65;44.56
59009;BME280;44794;42.652;23.318;2023-05-08T09:54:59;94679.97;;;22.93;44.38
59009;BME280;44794;42.652;23.318;2023-05-08T09:57:26;94678.44;;;22.84;43.78
59009;BME280;44794;42.652;23.318;2023-05-08T10:00:06;94680.47;;;22.54;45.34
59009;BME280;44794;42.652;23.318;2023-05-08T10:02:34;94679.56;;;22.24;45.54
59009;BME280;44794;42.652;23.318;2023-05-08T10:05:00;94669.81;;;21.74;46.71
59009;BME280;44794;42.652;23.318;2023-05-08T10:07:33;94672.03;;;22.21;46.06
59009;BME280;44794;42.652;23.318;2023-05-08T10:10:05;94679.06;;;22.72;44.82
59009;BME280;44794;42.652;23.318;2023-05-08T10:12:32;94677.09;;;22.60;45.02
59009;BME280;44794;42.652;23.318;2023-05-08T10:14:58;94670.13;;;22.44;45.29
59009;BME280;44794;42.652;23.318;2023-05-08T10:17:39;94670.47;;;22.99;44.66
59009;BME280;44794;42.652;23.318;2023-05-08T10:20:09;94665.78;;;23.50;43.90
59009;BME280;44794;42.652;23.318;2023-05-08T10:22:36;94656.03;;;24.20;42.91
59009;BME280;44794;42.652;23.318;2023-05-08T10:25:02;94658.47;;;24.83;41.58
59009;BME280;44794;42.652;23.318;2023-05-08T10:27:44;94654.81;;;25.24;40.87
59009;BME280;44794;42.652;23.318;2023-05-08T10:30:12;94652.94;;;24.78;40.55
59009;BME280;44794;42.652;23.318;2023-05-08T10:32:42;94646.81;;;24.77;40.84
59009;BME280;44794;42.652;23.318;2023-05-08T10:35:09;94639.31;;;24.26;41.46
59009;BME280;44794;42.652;23.318;2023-05-08T10:37:36;94649.63;;;24.08;42.16
59009;BME280;44794;42.652;23.318;2023-05-08T10:40:03;94652.75;;;23.91;42.67
59009;BME280;44794;42.652;23.318;2023-05-08T10:42:29;94645.84;;;22.84;45.08
59009;BME280;44794;42.652;23.318;2023-05-08T10:44:55;94641.88;;;23.09;44.58
59009;BME280;44794;42.652;23.318;2023-05-08T10:47:29;94640.91;;;22.81;45.20
59009;BME280;44794;42.652;23.318;2023-05-08T10:52:53;94625.50;;;22.70;46.01
59009;BME280;44794;42.652;23.318;2023-05-08T10:55:28;94628.78;;;22.58;46.62
59009;BME280;44794;42.652;23.318;2023-05-08T10:58:13;94623.19;;;22.67;46.56
59009;BME280;44794;42.652;23.318;2023-05-08T11:03:29;94618.28;;;22.64;46.83
59009;BME280;44794;42.652;23.318;2023-05-08T11:05:56;94614.44;;;22.67;46.39
59009;BME280;44794;42.652;23.318;2023-05-08T11:08:24;94611.25;;;22.57;46.97
59009;BME280;44794;42.652;23.318;2023-05-08T11:13:44;94607.31;;;22.67;48.40
59009;BME280;44794;42.652;23.318;2023-05-08T11:16:11;94602.53;;;23.06;46.71
59009;BME280;44794;42.652;23.318;2023-05-08T11:18:37;94603.81;;;22.95;45.73
59009;BME280;44794;42.652;23.318;2023-05-08T11:21:14;94602.47;;;22.85;46.22
59009;BME280;44794;42.652;23.318;2023-05-08T11:23:39;94588.38;;;22.84;46.27
59009;BME280;44794;42.652;23.318;2023-05-08T11:26:11;94581.72;;;22.88;46.49
59009;BME280;44794;42.652;23.318;2023-05-08T11:31:19;94584.88;;;22.63;47.20
59009;BME280;44794;42.652;23.318;2023-05-08T11:33:45;94574.69;;;22.81;46.41
59009;BME280;44794;42.652;23.318;2023-05-08T11:36:19;94582.63;;;22.81;46.42
59009;BME280;44794;42.652;23.318;2023-05-08T11:39:06;94568.47;;;22.88;46.26
59009;BME280;44794;42.652;23.318;2023-05-08T11:41:32;94559.69;;;23.02;45.35
59009;BME280;44794;42.652;23.318;2023-05-08T11:46:53;94550.97;;;23.08;44.86
59009;BME280;44794;42.652;23.318;2023-05-08T11:49:21;94546.31;;;22.75;45.32
59009;BME280;44794;42.652;23.318;2023-05-08T11:51:50;94545.81;;;22.86;45.10
59009;BME280;44794;42.652;23.318;2023-05-08T11:54:20;94544.59;;;23.24;44.52
59009;BME280;44794;42.652;23.318;2023-05-08T11:56:47;94534.63;;;23.74;44.60
59009;BME280;44794;42.652;23.318;2023-05-08T11:59:13;94538.53;;;24.05;42.32
59009;BME280;44794;42.652;23.318;2023-05-08T12:01:39;94530.19;;;23.74;42.69
59009;BME280;44794;42.652;23.318;2023-05-08T12:04:09;94531.69;;;23.42;42.26
59009;BME280;44794;42.652;23.318;2023-05-08T12:06:37;94525.78;;;23.67;42.31
59009;BME280;44794;42.652;23.318;2023-05-08T12:09:09;94529.69;;;23.98;40.75
59009;BME280;44794;42.652;23.318;2023-05-08T12:11:35;94527.66;;;24.27;40.21
59009;BME280;44794;42.652;23.318;2023-05-08T12:14:01;94533.06;;;24.47;40.31
59009;BME280;44794;42.652;23.318;2023-05-08T12:16:26;94529.22;;;24.56;38.67
59009;BME280;44794;42.652;23.318;2023-05-08T12:18:55;94529.38;;;24.48;39.18
59009;BME280;44794;42.652;23.318;2023-05-08T12:21:20;94531.13;;;23.94;39.49
59009;BME280;44794;42.652;23.318;2023-05-08T12:23:47;94532.25;;;23.79;40.75
59009;BME280;44794;42.652;23.318;2023-05-08T12:26:12;94527.19;;;23.63;40.40
59009;BME280;44794;42.652;23.318;2023-05-08T12:28:38;94530.06;;;23.61;41.25
59009;BME280;44794;42.652;23.318;2023-05-08T12:31:05;94521.63;;;23.31;41.84
59009;BME280;44794;42.652;23.318;2023-05-08T12:33:32;94519.06;;;23.02;42.40
59009;BME280;44794;42.652;23.318;2023-05-08T12:35:58;94513.28;;;22.71;42.56
59009;BME280;44794;42.652;23.318;2023-05-08T12:38:25;94518.44;;;22.79;42.74
59009;BME280;44794;42.652;23.318;2023-05-08T12:40:51;94515.34;;;22.75;43.08
59009;BME280;44794;42.652;23.318;2023-05-08T12:43:20;94523.97;;;22.63;43.96
59009;BME280;44794;42.652;23.318;2023-05-08T12:45:49;94518.53;;;22.50;45.61
59009;BME280;44794;42.652;23.318;2023-05-08T12:48:16;94510.78;;;22.69;46.10
59009;BME280;44794;42.652;23.318;2023-05-08T12:50:43;94517.19;;;22.96;45.44
59009;BME280;44794;42.652;23.318;2023-05-08T12:55:37;94504.00;;;23.44;45.62
59009;BME280;44794;42.652;23.318;2023-05-08T13:00:42;94505.09;;;23.29;44.25
59009;BME280;44794;42.652;23.318;2023-05-08T13:03:09;94506.50;;;23.04;44.80
59009;BME280;44794;42.652;23.318;2023-05-08T13:05:36;94496.97;;;23.09;44.88
59009;BME280;44794;42.652;23.318;2023-05-08T13:08:05;94496.94;;;23.51;45.16
59009;BME280;44794;42.652;23.318;2023-05-08T13:10:46;94490.81;;;23.78;43.38
59009;BME280;44794;42.652;23.318;2023-05-08T13:13:20;94495.22;;;23.98;43.75
59009;BME280;44794;42.652;23.318;2023-05-08T13:15:46;94514.25;;;23.74;42.76
59009;BME280;44794;42.652;23.318;2023-05-08T13:18:12;94524.94;;;22.76;46.73
59009;BME280;44794;42.652;23.318;2023-05-08T13:20:38;94525.28;;;20.93;51.57
59009;BME280;44794;42.652;23.318;2023-05-08T13:23:05;94513.13;;;20.84;52.91
59009;BME280;44794;42.652;23.318;2023-05-08T13:25:31;94522.28;;;20.65;54.13
59009;BME280;44794;42.652;23.318;2023-05-08T13:27:59;94520.41;;;20.51;54.97
59009;BME280;44794;42.652;23.318;2023-05-08T13:30:25;94524.56;;;20.08;57.61
59009;BME280;44794;42.652;23.318;2023-05-08T13:32:51;94519.84;;;19.87;59.09
59009;BME280;44794;42.652;23.318;2023-05-08T13:35:18;94524.19;;;19.64;60.20
59009;BME280;44794;42.652;23.318;2023-05-08T13:37:44;94525.69;;;19.51;60.74